Time;durP1;ratioP1;P1;durP2;ratioP2;P2;SDS_P1;SDS_P2;PMS_P1;PMS_P2;Temp;Humidity;BMP_temperature;BMP_pressure;BME280_temperature;BME280_humidity;BME280_pressure;Samples;Min_cycle;Max_cycle;Signal;HPM_P1;HPM_P2
2022/11/27 00:02:01;;;;;;;0.60;0.60;;;7.20;99.90;;;;;;4964618;28;20045;-78
2022/11/27 00:04:27;;;;;;;0.60;0.60;;;7.10;99.90;;;;;;4980278;28;20459;-79
2022/11/27 00:06:53;;;;;;;0.60;0.60;;;7.10;99.90;;;;;;4971661;28;20048;-79
2022/11/27 00:09:18;;;;;;;0.70;0.70;;;7.10;99.90;;;;;;4960991;28;20072;-80
2022/11/27 00:11:44;;;;;;;0.60;0.60;;;7.00;99.90;;;;;;4945593;28;20194;-79
2022/11/27 00:14:15;;;;;;;0.60;0.60;;;6.90;99.90;;;;;;4974590;28;20059;-80
2022/11/27 00:16:41;;;;;;;0.60;0.60;;;6.80;99.90;;;;;;4965729;28;20052;-79
2022/11/27 00:19:09;;;;;;;0.60;0.60;;;6.80;99.90;;;;;;4954091;28;20470;-80
2022/11/27 00:21:35;;;;;;;0.60;0.60;;;6.80;99.90;;;;;;4957532;28;20442;-78
2022/11/27 00:24:04;;;;;;;0.60;0.60;;;6.70;99.90;;;;;;4955107;28;20250;-79
2022/11/27 00:26:31;;;;;;;0.60;0.60;;;6.70;99.90;;;;;;4955221;28;20052;-79
2022/11/27 00:28:57;;;;;;;0.60;0.60;;;6.70;99.90;;;;;;4950206;28;20840;-79
2022/11/27 00:31:27;;;;;;;0.60;0.60;;;6.70;99.90;;;;;;4981289;28;20106;-79
2022/11/27 00:34:01;;;;;;;0.65;0.65;;;6.70;99.90;;;;;;4959350;28;20127;-79
2022/11/27 00:36:29;;;;;;;0.70;0.70;;;6.60;99.90;;;;;;4978789;28;20262;-79
2022/11/27 00:38:55;;;;;;;0.60;0.60;;;6.60;99.90;;;;;;4966256;28;20049;-79
2022/11/27 00:41:23;;;;;;;0.70;0.70;;;6.50;99.90;;;;;;4982763;28;20097;-78
2022/11/27 00:43:50;;;;;;;0.68;0.68;;;6.50;99.90;;;;;;4978570;28;20747;-79
2022/11/27 00:46:17;;;;;;;0.63;0.63;;;6.50;99.90;;;;;;4962398;28;20225;-78
2022/11/27 00:48:44;;;;;;;0.60;0.60;;;6.50;99.90;;;;;;4966084;28;20483;-79
2022/11/27 00:51:13;;;;;;;0.60;0.60;;;6.40;99.90;;;;;;4966550;28;20449;-79
2022/11/27 00:53:39;;;;;;;0.68;0.68;;;6.40;99.90;;;;;;4969964;28;20044;-79
2022/11/27 00:56:05;;;;;;;0.70;0.70;;;6.30;99.90;;;;;;4967136;28;20811;-80
2022/11/27 00:58:31;;;;;;;0.70;0.70;;;6.30;99.90;;;;;;4959208;28;20731;-79
2022/11/27 01:01:04;;;;;;;0.60;0.60;;;6.30;99.90;;;;;;4960599;28;20049;-79
2022/11/27 01:03:31;;;;;;;0.70;0.70;;;6.20;99.90;;;;;;4964638;28;20087;-79
2022/11/27 01:06:02;;;;;;;0.60;0.60;;;6.10;99.90;;;;;;4944683;28;20056;-79
2022/11/27 01:08:28;;;;;;;0.70;0.70;;;6.10;99.90;;;;;;4959581;28;20501;-79
2022/11/27 01:10:56;;;;;;;0.68;0.68;;;6.10;99.90;;;;;;4944883;28;20055;-79
2022/11/27 01:13:23;;;;;;;0.70;0.70;;;6.10;99.90;;;;;;4969107;28;20387;-79
2022/11/27 01:16:00;;;;;;;0.60;0.60;;;6.10;99.90;;;;;;4970305;28;21863;-79
2022/11/27 01:18:26;;;;;;;0.70;0.70;;;6.00;99.90;;;;;;4971678;28;20215;-79
2022/11/27 01:20:52;;;;;;;0.60;0.60;;;6.00;99.90;;;;;;4938138;28;20563;-78
2022/11/27 01:23:19;;;;;;;0.70;0.70;;;6.00;99.90;;;;;;4958821;28;20040;-79
2022/11/27 01:25:45;;;;;;;0.60;0.60;;;5.80;99.90;;;;;;4974869;28;20059;-79
2022/11/27 01:28:11;;;;;;;0.70;0.70;;;5.80;99.90;;;;;;4976839;28;20048;-79
2022/11/27 01:30:37;;;;;;;0.65;0.65;;;5.80;99.90;;;;;;4961042;28;20062;-79
2022/11/27 01:33:03;;;;;;;0.60;0.60;;;5.80;99.90;;;;;;4956418;28;20291;-78
2022/11/27 01:35:29;;;;;;;0.70;0.70;;;5.70;99.90;;;;;;4961116;28;20211;-79
2022/11/27 01:37:55;;;;;;;0.85;0.85;;;5.70;99.90;;;;;;4964223;28;20756;-79
2022/11/27 01:40:21;;;;;;;0.65;0.65;;;5.70;99.90;;;;;;4945627;28;20631;-79
2022/11/27 01:42:47;;;;;;;0.70;0.70;;;5.70;99.90;;;;;;4958365;28;20589;-79
2022/11/27 01:45:16;;;;;;;0.60;0.60;;;5.70;99.90;;;;;;4975718;28;20044;-79
2022/11/27 01:47:53;;;;;;;0.70;0.70;;;5.70;99.90;;;;;;4959474;28;20102;-79
2022/11/27 01:50:34;;;;;;;0.60;0.60;;;5.60;99.90;;;;;;4967143;28;20607;-79
2022/11/27 01:53:20;;;;;;;0.70;0.70;;;5.60;99.90;;;;;;4962125;28;20048;-80
2022/11/27 01:55:51;;;;;;;0.70;0.70;;;5.60;99.90;;;;;;4961781;28;20545;-79
2022/11/27 01:58:23;;;;;;;0.70;0.70;;;5.50;99.90;;;;;;4961144;28;20052;-79
2022/11/27 02:00:49;;;;;;;0.65;0.65;;;5.50;99.90;;;;;;4962125;28;21100;-80
2022/11/27 02:03:15;;;;;;;0.70;0.70;;;5.50;99.90;;;;;;4955346;28;20561;-79
2022/11/27 02:05:41;;;;;;;0.70;0.70;;;5.50;99.90;;;;;;4927964;28;20044;-79
2022/11/27 02:08:09;;;;;;;0.60;0.60;;;5.50;99.90;;;;;;4975500;28;20044;-79
2022/11/27 02:11:07;;;;;;;0.70;0.70;;;5.30;99.90;;;;;;4958972;28;20405;-79
2022/11/27 02:13:41;;;;;;;0.60;0.60;;;5.40;99.90;;;;;;4956814;28;20171;-79
2022/11/27 02:16:35;;;;;;;0.70;0.70;;;5.30;99.90;;;;;;4985298;28;20091;-79
2022/11/27 02:19:20;;;;;;;0.70;0.70;;;5.40;99.90;;;;;;4960201;28;20088;-79
2022/11/27 02:21:59;;;;;;;0.70;0.70;;;5.30;99.90;;;;;;4962027;28;20122;-78
2022/11/27 02:24:34;;;;;;;0.70;0.70;;;5.30;99.90;;;;;;4965815;28;20048;-77
2022/11/27 02:27:18;;;;;;;0.70;0.70;;;5.40;99.90;;;;;;4977135;28;20051;-79
2022/11/27 02:29:47;;;;;;;0.70;0.70;;;5.40;99.90;;;;;;4978230;28;20055;-79
2022/11/27 02:32:30;;;;;;;0.70;0.70;;;5.40;99.90;;;;;;4953165;28;20052;-79
2022/11/27 02:34:56;;;;;;;;;;;5.40;99.90;;;;;;4957261;28;20530;-78
2022/11/27 02:37:33;;;;;;;0.70;0.70;;;5.50;99.90;;;;;;4960950;28;19939;-79
2022/11/27 02:40:04;;;;;;;0.70;0.70;;;5.40;99.90;;;;;;4978365;28;20410;-79
2022/11/27 02:42:41;;;;;;;0.70;0.70;;;5.40;99.90;;;;;;4978687;28;20620;-79
2022/11/27 02:45:11;;;;;;;0.63;0.63;;;5.50;99.90;;;;;;4947091;28;20645;-78
2022/11/27 02:47:39;;;;;;;0.70;0.70;;;5.40;99.90;;;;;;4965388;28;20054;-79
2022/11/27 02:50:09;;;;;;;0.60;0.60;;;5.40;99.90;;;;;;4982291;28;20527;-77
2022/11/27 02:52:36;;;;;;;0.68;0.68;;;5.40;99.90;;;;;;4976037;28;20131;-79
2022/11/27 02:55:07;;;;;;;0.70;0.70;;;5.40;99.90;;;;;;4958578;28;20083;-79
2022/11/27 02:57:34;;;;;;;0.70;0.70;;;5.40;99.90;;;;;;4957203;28;20056;-79
2022/11/27 03:00:01;;;;;;;0.70;0.70;;;5.30;99.90;;;;;;4979267;28;21254;-78
2022/11/27 03:02:32;;;;;;;0.60;0.60;;;5.40;99.90;;;;;;4969993;28;20044;-78
2022/11/27 03:05:01;;;;;;;0.70;0.70;;;5.30;99.90;;;;;;4961801;28;20711;-79
2022/11/27 03:08:04;;;;;;;0.70;0.70;;;5.30;99.90;;;;;;4960310;28;20952;-78
2022/11/27 03:10:44;;;;;;;0.70;0.70;;;5.40;99.90;;;;;;4891311;28;20064;-78
2022/11/27 03:13:10;;;;;;;0.60;0.60;;;5.40;99.90;;;;;;4962089;28;20721;-78
2022/11/27 03:15:54;;;;;;;0.70;0.70;;;5.40;99.90;;;;;;4962492;28;20048;-79
2022/11/27 03:18:47;;;;;;;0.70;0.70;;;5.40;99.90;;;;;;4953061;28;20305;-78
2022/11/27 03:21:29;;;;;;;0.70;0.70;;;5.40;99.90;;;;;;4942457;28;20571;-79
2022/11/27 03:23:56;;;;;;;0.70;0.70;;;5.30;99.90;;;;;;4973192;28;20040;-78
2022/11/27 03:26:22;;;;;;;0.70;0.70;;;5.40;99.90;;;;;;4944361;28;20048;-78
2022/11/27 03:28:50;;;;;;;0.70;0.70;;;5.50;99.90;;;;;;4942370;28;20076;-79
2022/11/27 03:31:16;;;;;;;0.70;0.70;;;5.30;99.90;;;;;;4960438;28;20132;-78
2022/11/27 03:33:42;;;;;;;0.70;0.70;;;5.40;99.90;;;;;;4962766;28;20048;-78
2022/11/27 03:36:14;;;;;;;0.70;0.70;;;5.40;99.90;;;;;;4961099;28;20084;-78
2022/11/27 03:38:41;;;;;;;0.73;0.73;;;5.50;99.90;;;;;;4981364;28;20044;-78
2022/11/27 03:41:32;;;;;;;0.70;0.70;;;5.50;99.90;;;;;;4959355;28;20065;-79
2022/11/27 03:44:00;;;;;;;0.70;0.70;;;5.50;99.90;;;;;;4962349;28;20053;-78
2022/11/27 03:46:45;;;;;;;0.70;0.70;;;5.50;99.90;;;;;;4965328;28;20476;-79
2022/11/27 03:49:50;;;;;;;0.70;0.70;;;5.60;99.90;;;;;;4979178;28;20166;-77
2022/11/27 03:52:34;;;;;;;0.70;0.70;;;5.60;99.90;;;;;;4961112;28;20052;-79
2022/11/27 03:55:27;;;;;;;0.70;0.70;;;5.50;99.90;;;;;;4963404;28;20759;-78
2022/11/27 03:58:11;;;;;;;0.70;0.70;;;5.60;99.90;;;;;;4963624;28;20083;-79
2022/11/27 04:00:40;;;;;;;0.70;0.70;;;5.60;99.90;;;;;;4957380;28;20498;-78
2022/11/27 04:03:11;;;;;;;0.70;0.70;;;5.60;99.90;;;;;;4990084;28;20109;-77
2022/11/27 04:05:36;;;;;;;0.70;0.70;;;5.60;99.90;;;;;;4965926;28;20859;-79
2022/11/27 04:08:03;;;;;;;0.70;0.70;;;5.60;99.90;;;;;;4961123;28;20041;-78
2022/11/27 04:10:29;;;;;;;0.70;0.70;;;5.60;99.90;;;;;;4957643;28;20053;-78
2022/11/27 04:12:54;;;;;;;0.70;0.70;;;5.60;99.90;;;;;;4976240;28;20500;-77
2022/11/27 04:15:20;;;;;;;0.70;0.70;;;5.60;99.90;;;;;;4948551;28;20627;-79
2022/11/27 04:17:46;;;;;;;0.70;0.70;;;5.60;99.90;;;;;;4953748;28;20075;-78
2022/11/27 04:20:13;;;;;;;0.70;0.70;;;5.60;99.90;;;;;;4960566;28;20056;-77
2022/11/27 04:22:39;;;;;;;0.60;0.60;;;5.60;99.90;;;;;;4940779;28;20040;-78
2022/11/27 04:25:05;;;;;;;0.70;0.70;;;5.70;99.90;;;;;;4948345;28;20705;-78
2022/11/27 04:27:31;;;;;;;0.70;0.70;;;5.60;99.90;;;;;;4961168;28;20080;-78
2022/11/27 04:29:57;;;;;;;0.70;0.70;;;5.70;99.90;;;;;;4951495;28;20049;-78
2022/11/27 04:32:22;;;;;;;0.68;0.68;;;5.60;99.90;;;;;;4979224;28;20048;-78
2022/11/27 04:34:48;;;;;;;0.68;0.68;;;5.70;99.90;;;;;;4964294;28;20044;-77
2022/11/27 04:37:14;;;;;;;0.70;0.70;;;5.70;99.90;;;;;;4951134;28;20692;-79
2022/11/27 04:39:40;;;;;;;0.70;0.70;;;5.70;99.90;;;;;;4964900;28;20794;-77
2022/11/27 04:42:06;;;;;;;0.70;0.70;;;5.70;99.90;;;;;;4975069;28;20048;-78
2022/11/27 04:44:31;;;;;;;0.70;0.70;;;5.70;99.90;;;;;;4977453;28;20212;-79
2022/11/27 04:46:57;;;;;;;0.70;0.70;;;5.70;99.90;;;;;;4963872;28;20059;-78
2022/11/27 04:49:23;;;;;;;0.68;0.68;;;5.70;99.90;;;;;;4959183;28;20576;-77
2022/11/27 04:51:48;;;;;;;0.70;0.70;;;5.70;99.90;;;;;;4977298;28;20502;-79
2022/11/27 04:54:14;;;;;;;0.63;0.63;;;5.70;99.90;;;;;;4969284;28;20639;-78
2022/11/27 04:56:40;;;;;;;0.70;0.70;;;5.70;99.90;;;;;;4965008;28;20052;-78
2022/11/27 04:59:06;;;;;;;0.70;0.70;;;5.70;99.90;;;;;;4962812;28;20052;-78
2022/11/27 05:01:32;;;;;;;0.70;0.70;;;5.70;99.90;;;;;;4965360;28;20557;-79
2022/11/27 05:03:58;;;;;;;0.70;0.70;;;5.70;99.90;;;;;;4966034;28;20063;-79
2022/11/27 05:06:23;;;;;;;0.70;0.70;;;5.70;99.90;;;;;;4968239;28;20041;-79
2022/11/27 05:08:49;;;;;;;0.70;0.70;;;5.70;99.90;;;;;;4963232;28;20410;-78
2022/11/27 05:11:16;;;;;;;0.70;0.70;;;5.60;99.90;;;;;;4961775;28;20409;-79
2022/11/27 05:13:42;;;;;;;0.70;0.70;;;5.60;99.90;;;;;;4967910;28;20048;-79
2022/11/27 05:16:09;;;;;;;0.70;0.70;;;5.70;99.90;;;;;;4960754;28;20057;-79
2022/11/27 05:18:35;;;;;;;0.70;0.70;;;5.60;99.90;;;;;;4961224;28;20367;-79
2022/11/27 05:21:03;;;;;;;0.70;0.70;;;5.60;99.90;;;;;;4973894;28;20788;-78
2022/11/27 05:23:30;;;;;;;0.70;0.70;;;5.50;99.90;;;;;;4960564;28;20052;-79
2022/11/27 05:25:56;;;;;;;0.70;0.70;;;5.60;99.90;;;;;;4965458;28;20052;-78
2022/11/27 05:28:22;;;;;;;0.70;0.70;;;5.60;99.90;;;;;;4982129;28;20049;-78
2022/11/27 05:30:48;;;;;;;0.70;0.70;;;5.60;99.90;;;;;;4956808;28;20051;-78
2022/11/27 05:33:15;;;;;;;0.70;0.70;;;5.60;99.90;;;;;;4961819;28;20084;-79
2022/11/27 05:35:41;;;;;;;0.70;0.70;;;5.60;99.90;;;;;;4957209;28;20865;-78
2022/11/27 05:38:08;;;;;;;0.70;0.70;;;5.60;99.90;;;;;;4963602;28;20053;-79
2022/11/27 05:40:34;;;;;;;0.70;0.70;;;5.50;99.90;;;;;;4943705;28;20044;-78
2022/11/27 05:43:00;;;;;;;0.70;0.70;;;5.50;99.90;;;;;;4956487;28;20519;-79
2022/11/27 05:45:26;;;;;;;0.70;0.70;;;5.50;99.90;;;;;;4958683;28;20051;-79
2022/11/27 05:47:52;;;;;;;0.70;0.70;;;5.50;99.90;;;;;;4980071;28;20047;-78
2022/11/27 05:50:17;;;;;;;0.70;0.70;;;5.50;99.90;;;;;;4973897;28;20052;-78
2022/11/27 05:52:43;;;;;;;0.70;0.70;;;5.50;99.90;;;;;;4983235;28;20037;-78
2022/11/27 05:55:09;;;;;;;0.70;0.70;;;5.50;99.90;;;;;;4963168;28;20110;-79
2022/11/27 05:57:35;;;;;;;0.70;0.70;;;5.50;99.90;;;;;;4984581;28;20379;-78
2022/11/27 06:00:01;;;;;;;0.70;0.70;;;5.50;99.90;;;;;;4966178;28;20367;-78
2022/11/27 06:02:26;;;;;;;0.70;0.70;;;5.40;99.90;;;;;;4946319;28;20468;-79
2022/11/27 06:04:52;;;;;;;0.70;0.70;;;5.50;99.90;;;;;;4977998;28;20307;-78
2022/11/27 06:07:18;;;;;;;0.70;0.70;;;5.50;99.90;;;;;;4926555;28;20076;-78
2022/11/27 06:09:43;;;;;;;0.70;0.70;;;5.60;99.90;;;;;;4960164;28;20497;-79
2022/11/27 06:12:10;;;;;;;0.70;0.70;;;5.50;99.90;;;;;;4983527;28;20044;-78
2022/11/27 06:14:35;;;;;;;0.70;0.70;;;5.50;99.90;;;;;;4946129;28;20049;-78
2022/11/27 06:17:01;;;;;;;0.70;0.70;;;5.60;99.90;;;;;;4981395;28;20052;-79
2022/11/27 06:19:28;;;;;;;0.70;0.70;;;5.60;99.90;;;;;;4963250;28;20052;-79
2022/11/27 06:21:53;;;;;;;0.70;0.70;;;5.60;99.90;;;;;;4984778;28;20369;-78
2022/11/27 06:24:19;;;;;;;0.70;0.70;;;5.60;99.90;;;;;;4983183;28;20649;-78
2022/11/27 06:26:45;;;;;;;0.70;0.70;;;5.60;99.90;;;;;;4954184;28;20093;-79
2022/11/27 06:29:11;;;;;;;0.70;0.70;;;5.60;99.90;;;;;;4981715;28;20131;-79
2022/11/27 06:31:37;;;;;;;0.70;0.70;;;5.60;99.90;;;;;;4961476;28;20052;-79
2022/11/27 06:34:03;;;;;;;0.70;0.70;;;5.60;99.90;;;;;;4962038;28;20528;-79
2022/11/27 06:36:32;;;;;;;0.70;0.70;;;5.60;99.90;;;;;;4947318;28;20488;-78
2022/11/27 06:38:57;;;;;;;0.70;0.70;;;5.60;99.90;;;;;;4984393;28;20405;-79
2022/11/27 06:41:25;;;;;;;0.70;0.70;;;5.60;99.90;;;;;;4980667;28;20044;-78
2022/11/27 06:43:51;;;;;;;0.70;0.70;;;5.60;99.90;;;;;;4955578;28;20696;-78
2022/11/27 06:46:19;;;;;;;0.70;0.70;;;5.70;99.90;;;;;;4972035;28;20044;-78
2022/11/27 06:48:47;;;;;;;0.70;0.70;;;5.60;99.90;;;;;;4979088;28;20557;-79
2022/11/27 06:51:16;;;;;;;0.70;0.70;;;5.70;99.90;;;;;;4982089;28;20040;-79
2022/11/27 06:53:43;;;;;;;0.70;0.70;;;5.60;99.90;;;;;;4960852;28;20632;-78
2022/11/27 06:56:14;;;;;;;0.70;0.70;;;5.70;99.90;;;;;;4945626;28;20106;-78
2022/11/27 06:58:41;;;;;;;0.70;0.70;;;5.70;99.90;;;;;;4982880;28;20143;-79
2022/11/27 07:01:10;;;;;;;0.60;0.60;;;5.70;99.90;;;;;;4955471;28;20214;-79
2022/11/27 07:03:36;;;;;;;0.70;0.70;;;5.70;99.90;;;;;;4946991;28;21179;-79
2022/11/27 07:06:05;;;;;;;0.70;0.70;;;5.60;99.90;;;;;;4959744;28;20053;-78
2022/11/27 07:08:32;;;;;;;0.70;0.70;;;5.60;99.90;;;;;;4959751;28;20607;-78
2022/11/27 07:11:05;;;;;;;0.70;0.70;;;5.60;99.90;;;;;;4961418;28;20079;-79
2022/11/27 07:13:31;;;;;;;0.70;0.70;;;5.70;99.90;;;;;;4958698;28;20060;-79
2022/11/27 07:16:01;;;;;;;0.70;0.70;;;5.80;99.90;;;;;;4962203;28;20151;-79
2022/11/27 07:18:28;;;;;;;0.70;0.70;;;5.70;99.90;;;;;;4963257;28;20522;-79
2022/11/27 07:20:54;;;;;;;0.70;0.70;;;5.70;99.90;;;;;;4962678;28;20064;-79
2022/11/27 07:23:20;;;;;;;0.70;0.70;;;5.70;99.90;;;;;;4983503;28;20097;-79
2022/11/27 07:25:46;;;;;;;0.70;0.70;;;5.80;99.90;;;;;;4942137;28;20128;-79
2022/11/27 07:28:12;;;;;;;0.70;0.70;;;5.80;99.90;;;;;;4960699;28;20049;-79
2022/11/27 07:30:38;;;;;;;0.70;0.70;;;5.80;99.90;;;;;;4960220;28;20168;-79
2022/11/27 07:33:03;;;;;;;0.70;0.70;;;5.80;99.90;;;;;;4946764;28;20045;-79
2022/11/27 07:35:29;;;;;;;0.70;0.70;;;5.80;99.90;;;;;;4938772;28;20437;-78
2022/11/27 07:37:55;;;;;;;0.70;0.70;;;5.80;99.90;;;;;;4957750;28;20060;-79
2022/11/27 07:40:21;;;;;;;0.60;0.60;;;5.80;99.90;;;;;;4943146;28;20044;-80
2022/11/27 07:42:46;;;;;;;0.60;0.60;;;5.90;99.90;;;;;;4961237;28;20082;-79
2022/11/27 07:45:12;;;;;;;0.60;0.60;;;5.90;99.90;;;;;;4975916;28;20129;-78
2022/11/27 07:47:38;;;;;;;0.70;0.70;;;5.90;99.90;;;;;;4985912;28;20541;-78
2022/11/27 07:50:07;;;;;;;0.70;0.70;;;5.90;99.90;;;;;;4953678;28;20204;-78
2022/11/27 07:52:34;;;;;;;0.70;0.70;;;6.00;99.90;;;;;;4964986;28;20045;-81
2022/11/27 07:55:00;;;;;;;0.70;0.70;;;6.00;99.90;;;;;;4954021;28;20056;-79
2022/11/27 07:57:27;;;;;;;0.70;0.70;;;6.00;99.90;;;;;;4957234;28;20400;-79
2022/11/27 07:59:53;;;;;;;0.63;0.63;;;6.00;99.90;;;;;;4964277;28;20524;-79
2022/11/27 08:02:19;;;;;;;0.70;0.70;;;6.00;99.90;;;;;;4960204;28;20452;-79
2022/11/27 08:04:45;;;;;;;0.70;0.70;;;6.00;99.90;;;;;;4973829;28;20131;-79
2022/11/27 08:07:11;;;;;;;0.70;0.70;;;6.00;99.90;;;;;;4968655;28;20048;-79
2022/11/27 08:09:38;;;;;;;0.70;0.70;;;6.00;99.90;;;;;;4965363;28;20083;-79
2022/11/27 08:12:04;;;;;;;0.63;0.63;;;6.10;99.90;;;;;;4968398;28;20408;-78
2022/11/27 08:14:30;;;;;;;0.70;0.70;;;6.10;99.90;;;;;;4963892;28;20048;-79
2022/11/27 08:16:55;;;;;;;0.60;0.60;;;6.10;99.90;;;;;;4956426;28;20735;-79
2022/11/27 08:19:21;;;;;;;0.70;0.70;;;6.20;99.90;;;;;;4954744;28;20064;-80
2022/11/27 08:21:47;;;;;;;0.60;0.60;;;6.20;99.90;;;;;;4964487;28;20156;-79
2022/11/27 08:24:13;;;;;;;0.70;0.70;;;6.30;99.90;;;;;;4936110;28;20044;-79
2022/11/27 08:26:39;;;;;;;0.70;0.70;;;6.40;99.90;;;;;;4953626;28;20057;-79
2022/11/27 08:29:05;;;;;;;0.70;0.70;;;6.40;99.90;;;;;;4978639;28;20102;-79
2022/11/27 08:31:32;;;;;;;0.70;0.70;;;6.40;99.90;;;;;;4965437;28;21013;-81
2022/11/27 08:33:58;;;;;;;0.70;0.70;;;6.40;99.90;;;;;;4953353;28;20529;-79
2022/11/27 08:36:25;;;;;;;0.60;0.60;;;6.40;99.90;;;;;;4960107;28;20098;-79
2022/11/27 08:38:51;;;;;;;0.60;0.60;;;6.40;99.90;;;;;;4953601;28;20110;-79
2022/11/27 08:41:17;;;;;;;0.70;0.70;;;6.50;99.90;;;;;;4953603;28;20056;-80
2022/11/27 08:43:43;;;;;;;0.60;0.60;;;6.40;99.90;;;;;;4963422;28;20052;-79
2022/11/27 08:46:09;;;;;;;0.70;0.70;;;6.50;99.90;;;;;;4959392;28;20579;-80
2022/11/27 08:48:35;;;;;;;0.60;0.60;;;6.50;99.90;;;;;;4941386;28;20434;-77
2022/11/27 08:51:06;;;;;;;0.60;0.60;;;6.50;99.90;;;;;;4955607;28;20049;-80
2022/11/27 08:53:31;;;;;;;0.70;0.70;;;6.60;99.90;;;;;;4961697;28;20522;-80
2022/11/27 08:56:08;;;;;;;0.63;0.63;;;6.60;99.90;;;;;;4936753;28;20049;-79
2022/11/27 08:58:34;;;;;;;0.60;0.60;;;6.60;99.90;;;;;;4946844;28;20941;-79
2022/11/27 09:01:06;;;;;;;0.70;0.70;;;6.60;99.90;;;;;;4977443;28;20189;-79
2022/11/27 09:03:32;;;;;;;0.60;0.60;;;6.60;99.90;;;;;;4963906;28;20044;-79
2022/11/27 09:05:58;;;;;;;0.60;0.60;;;6.70;99.90;;;;;;4968185;28;20447;-79
2022/11/27 09:08:23;;;;;;;0.57;0.57;;;6.70;99.90;;;;;;4966937;28;20040;-80
2022/11/27 09:10:49;;;;;;;0.60;0.60;;;6.70;99.90;;;;;;4965834;28;20045;-79
2022/11/27 09:13:15;;;;;;;0.63;0.63;;;6.70;99.90;;;;;;4989346;28;20116;-79
2022/11/27 09:15:40;;;;;;;0.60;0.60;;;6.70;99.90;;;;;;4968899;28;20053;-79
2022/11/27 09:18:06;;;;;;;0.60;0.60;;;6.80;99.90;;;;;;4971380;28;20063;-81
2022/11/27 09:20:32;;;;;;;0.60;0.60;;;6.80;99.90;;;;;;4968674;28;20064;-79
2022/11/27 09:23:00;;;;;;;0.70;0.70;;;6.80;99.90;;;;;;4968120;28;20408;-79
2022/11/27 09:25:26;;;;;;;0.70;0.70;;;6.80;99.90;;;;;;4993931;28;20067;-79
2022/11/27 09:27:51;;;;;;;0.60;0.60;;;6.80;99.90;;;;;;4957801;28;20048;-78
2022/11/27 09:30:17;;;;;;;0.60;0.60;;;6.80;99.90;;;;;;4969184;28;20040;-78
2022/11/27 09:32:43;;;;;;;0.60;0.60;;;6.80;99.90;;;;;;4955563;28;20738;-79
2022/11/27 09:35:09;;;;;;;0.60;0.60;;;6.80;99.90;;;;;;4973637;28;20052;-79
2022/11/27 09:37:34;;;;;;;0.65;0.65;;;6.80;99.90;;;;;;4985668;28;20131;-78
2022/11/27 09:40:00;;;;;;;0.70;0.70;;;6.80;99.90;;;;;;4969937;28;20059;-79
2022/11/27 09:42:41;;;;;;;0.65;0.65;;;6.70;99.90;;;;;;4954792;28;20063;-79
2022/11/27 09:45:13;;;;;;;0.60;0.60;;;6.80;99.90;;;;;;4970331;28;20563;-79
2022/11/27 09:47:45;;;;;;;0.60;0.60;;;6.80;99.90;;;;;;4968199;28;20052;-79
2022/11/27 09:50:16;;;;;;;0.63;0.63;;;6.80;99.90;;;;;;4965712;28;20057;-79
2022/11/27 09:52:52;;;;;;;0.65;0.65;;;6.70;99.90;;;;;;4989074;28;20185;-78
2022/11/27 09:55:42;;;;;;;0.65;0.65;;;6.70;99.90;;;;;;4975377;28;20045;-78
2022/11/27 09:58:13;;;;;;;0.60;0.60;;;6.70;99.90;;;;;;4969849;28;20697;-78
2022/11/27 10:00:39;;;;;;;0.75;0.75;;;6.80;99.90;;;;;;4973480;28;20083;-79
2022/11/27 10:03:13;;;;;;;0.60;0.60;;;6.80;99.90;;;;;;4991036;28;20055;-78
2022/11/27 10:06:10;;;;;;;0.63;0.63;;;6.80;99.90;;;;;;4972878;28;20048;-79
2022/11/27 10:08:48;;;;;;;0.70;0.70;;;6.70;99.90;;;;;;4973460;28;20555;-79
2022/11/27 10:11:55;;;;;;;0.60;0.60;;;6.80;99.90;;;;;;4974701;28;20914;-79
2022/11/27 10:14:50;;;;;;;0.60;0.60;;;6.80;99.90;;;;;;4941329;28;20169;-79
2022/11/27 10:17:20;;;;;;;0.60;0.60;;;6.80;99.90;;;;;;4990544;28;20049;-79
2022/11/27 10:19:58;;;;;;;0.60;0.60;;;6.70;99.90;;;;;;4968564;28;20055;-79
2022/11/27 10:22:55;;;;;;;0.60;0.60;;;6.80;99.90;;;;;;4969157;28;20481;-79
2022/11/27 10:25:35;;;;;;;0.60;0.60;;;6.70;99.90;;;;;;4968324;28;20056;-78
2022/11/27 10:28:33;;;;;;;0.60;0.60;;;6.70;99.90;;;;;;4969791;28;20044;-79
2022/11/27 10:31:02;;;;;;;0.60;0.60;;;6.80;99.90;;;;;;4941667;28;20056;-79
2022/11/27 10:33:49;;;;;;;0.60;0.60;;;6.70;99.90;;;;;;4969353;28;20139;-78
2022/11/27 10:36:29;;;;;;;0.68;0.68;;;6.70;99.90;;;;;;4972163;28;20127;-78
2022/11/27 10:38:58;;;;;;;0.60;0.60;;;6.80;99.90;;;;;;4972405;28;20141;-78
2022/11/27 10:41:31;;;;;;;0.70;0.70;;;6.70;99.90;;;;;;4982226;28;20471;-80
2022/11/27 10:44:02;;;;;;;0.60;0.60;;;6.80;99.90;;;;;;4967880;28;20424;-79
2022/11/27 10:46:31;;;;;;;0.60;0.60;;;6.80;99.90;;;;;;4978043;28;20278;-79
2022/11/27 10:48:57;;;;;;;0.60;0.60;;;6.80;99.90;;;;;;4970865;28;20045;-79
2022/11/27 10:51:31;;;;;;;0.60;0.60;;;6.90;99.90;;;;;;4967317;28;20067;-79
2022/11/27 10:53:59;;;;;;;0.70;0.70;;;6.90;99.90;;;;;;4971116;28;20657;-78
2022/11/27 10:56:46;;;;;;;0.60;0.60;;;6.90;99.90;;;;;;4973323;28;20078;-79
2022/11/27 10:59:20;;;;;;;0.60;0.60;;;6.90;99.90;;;;;;4970247;28;20055;-79
2022/11/27 11:01:52;;;;;;;0.70;0.70;;;6.90;99.90;;;;;;4970402;28;20114;-79
2022/11/27 11:04:29;;;;;;;0.60;0.60;;;6.90;99.90;;;;;;4970511;28;20855;-81
2022/11/27 11:06:55;;;;;;;0.60;0.60;;;7.00;99.90;;;;;;4970413;28;20071;-79
2022/11/27 11:09:28;;;;;;;0.60;0.60;;;7.00;99.90;;;;;;4967836;28;20049;-79
2022/11/27 11:12:05;;;;;;;0.60;0.60;;;6.90;99.90;;;;;;4937336;28;20057;-79
2022/11/27 11:14:31;;;;;;;0.60;0.60;;;7.00;99.90;;;;;;4974033;28;20088;-80
2022/11/27 11:16:57;;;;;;;0.70;0.70;;;7.00;99.90;;;;;;4955902;28;20440;-79
2022/11/27 11:19:24;;;;;;;0.60;0.60;;;7.00;99.90;;;;;;4958721;28;20420;-78
2022/11/27 11:21:50;;;;;;;0.60;0.60;;;6.90;99.90;;;;;;4957312;28;20201;-79
2022/11/27 11:24:25;;;;;;;0.60;0.60;;;7.00;99.90;;;;;;4961098;28;20052;-79
2022/11/27 11:26:54;;;;;;;0.70;0.70;;;7.00;99.90;;;;;;4976347;28;20851;-79
2022/11/27 11:29:28;;;;;;;0.60;0.60;;;7.00;99.90;;;;;;4955798;28;20072;-80
2022/11/27 11:31:56;;;;;;;0.60;0.60;;;7.00;99.90;;;;;;4959721;28;20056;-77
2022/11/27 11:34:26;;;;;;;0.60;0.60;;;7.10;99.90;;;;;;4942579;28;20056;-79
2022/11/27 11:37:23;;;;;;;0.60;0.60;;;7.10;99.90;;;;;;4959125;28;20079;-79
2022/11/27 11:40:12;;;;;;;0.60;0.60;;;7.10;99.90;;;;;;4956596;28;20167;-79
2022/11/27 11:43:01;;;;;;;0.60;0.60;;;7.20;99.90;;;;;;4972653;28;20048;-78
2022/11/27 11:45:29;;;;;;;0.60;0.60;;;7.20;99.90;;;;;;4973846;28;20079;-79
2022/11/27 11:48:00;;;;;;;0.60;0.60;;;7.20;99.90;;;;;;4950004;28;20056;-80
2022/11/27 11:50:52;;;;;;;0.60;0.60;;;7.20;99.90;;;;;;4945609;28;20775;-79
2022/11/27 11:53:38;;;;;;;0.60;0.60;;;7.20;99.90;;;;;;4958903;28;20071;-78
2022/11/27 11:56:04;;;;;;;0.60;0.60;;;7.20;99.90;;;;;;4980466;28;20032;-78
2022/11/27 11:59:00;;;;;;;0.60;0.60;;;7.30;99.90;;;;;;4963617;28;20121;-80
2022/11/27 12:01:53;;;;;;;0.60;0.60;;;7.30;99.90;;;;;;4962719;28;20059;-79
2022/11/27 12:04:38;;;;;;;0.60;0.60;;;7.30;99.90;;;;;;4953937;28;20468;-79
2022/11/27 12:07:39;;;;;;;0.60;0.60;;;7.40;99.90;;;;;;4971011;28;20083;-79
2022/11/27 12:10:45;;;;;;;0.60;0.60;;;7.40;99.90;;;;;;4965273;28;20085;-79
2022/11/27 12:13:30;;;;;;;0.60;0.60;;;7.30;99.90;;;;;;4992329;28;20422;-80
2022/11/27 12:16:17;;;;;;;0.60;0.60;;;7.40;99.90;;;;;;4980457;28;20165;-79
2022/11/27 12:19:20;;;;;;;0.60;0.60;;;7.40;99.90;;;;;;4956282;28;20779;-79
2022/11/27 12:21:51;;;;;;;0.60;0.60;;;7.40;99.90;;;;;;4993847;28;20731;-80
2022/11/27 12:24:41;;;;;;;0.60;0.60;;;7.40;99.90;;;;;;4974106;28;20470;-77
2022/11/27 12:27:32;;;;;;;0.60;0.60;;;7.30;99.90;;;;;;4970517;28;20135;-78
2022/11/27 12:30:09;;;;;;;0.60;0.60;;;7.30;99.90;;;;;;4979333;28;20407;-79
2022/11/27 12:32:47;;;;;;;0.60;0.60;;;7.30;99.90;;;;;;4976414;28;20048;-79
2022/11/27 12:35:33;;;;;;;0.60;0.60;;;7.30;99.90;;;;;;4977962;28;20052;-79
2022/11/27 12:38:04;;;;;;;0.68;0.68;;;7.30;99.90;;;;;;4994608;28;20462;-79
2022/11/27 12:40:47;;;;;;;0.70;0.70;;;7.30;99.90;;;;;;4987164;28;20109;-78
2022/11/27 12:43:24;;;;;;;0.80;0.80;;;7.30;99.90;;;;;;4943135;28;20136;-78
2022/11/27 12:46:03;;;;;;;0.70;0.70;;;7.20;99.90;;;;;;4972070;28;20811;-79
2022/11/27 12:48:45;;;;;;;0.65;0.65;;;7.30;99.90;;;;;;4964912;28;20494;-78
2022/11/27 12:51:18;;;;;;;0.60;0.60;;;7.30;99.90;;;;;;4968034;28;20823;-78
2022/11/27 12:54:11;;;;;;;0.70;0.70;;;7.20;99.90;;;;;;4981951;28;20432;-78
2022/11/27 12:56:49;;;;;;;0.60;0.60;;;7.20;99.90;;;;;;4969327;28;20106;-78
2022/11/27 12:59:32;;;;;;;0.70;0.70;;;7.20;99.90;;;;;;4967291;28;20866;-79
2022/11/27 13:02:19;;;;;;;0.70;0.70;;;7.20;99.90;;;;;;4963100;28;20377;-79
2022/11/27 13:04:51;;;;;;;0.60;0.60;;;7.20;99.90;;;;;;4964751;28;20556;-77
2022/11/27 13:07:37;;;;;;;0.70;0.70;;;7.20;99.90;;;;;;4960402;28;20594;-81
2022/11/27 13:10:09;;;;;;;0.70;0.70;;;7.20;99.90;;;;;;4971159;28;20593;-78
2022/11/27 13:12:41;;;;;;;0.70;0.70;;;7.20;99.90;;;;;;4972934;28;20094;-79
2022/11/27 13:15:26;;;;;;;0.60;0.60;;;7.20;99.90;;;;;;4974881;28;20616;-79
2022/11/27 13:18:00;;;;;;;0.70;0.70;;;7.20;99.90;;;;;;4982126;28;20071;-79
2022/11/27 13:20:33;;;;;;;0.60;0.60;;;7.20;99.90;;;;;;4979565;28;20097;-79